createdAt,value
2022-11-12T00:02:42.538Z,13.18
2022-11-12T00:05:27.418Z,12.27
2022-11-12T00:08:13.966Z,11.25
2022-11-12T00:10:58.857Z,11.15
2022-11-12T00:13:43.745Z,13.75
2022-11-12T00:16:28.614Z,10.88
2022-11-12T00:19:13.296Z,17.00
2022-11-12T00:21:58.235Z,11.10
2022-11-12T00:24:43.019Z,17.25
2022-11-12T00:27:28.093Z,14.30
2022-11-12T00:30:13.158Z,12.73
2022-11-12T00:33:02.689Z,13.07
2022-11-12T00:35:48.858Z,13.63
2022-11-12T00:38:33.736Z,15.38
2022-11-12T00:41:18.646Z,13.20
2022-11-12T00:44:03.885Z,13.45
2022-11-12T00:46:49.050Z,12.55
2022-11-12T00:49:34.020Z,16.77
2022-11-12T00:52:18.839Z,14.93
2022-11-12T00:55:04.323Z,11.90
2022-11-12T00:57:49.329Z,13.45
2022-11-12T01:00:34.350Z,13.32
2022-11-12T01:03:19.374Z,14.98
2022-11-12T01:06:05.795Z,14.55
2022-11-12T01:08:51.610Z,12.82
2022-11-12T01:11:36.533Z,14.82
2022-11-12T01:14:21.588Z,13.88
2022-11-12T01:17:06.380Z,11.93
2022-11-12T01:19:51.278Z,16.92
2022-11-12T01:22:36.031Z,14.52
2022-11-12T01:25:20.812Z,15.85
2022-11-12T01:28:05.686Z,11.90
2022-11-12T01:30:50.494Z,13.80
2022-11-12T01:33:35.484Z,14.80
2022-11-12T01:36:21.146Z,13.00
2022-11-12T01:39:08.288Z,11.68
2022-11-12T01:41:53.601Z,20.45
2022-11-12T01:44:42.164Z,11.65
2022-11-12T01:47:30.749Z,14.23
2022-11-12T01:50:33.119Z,13.75
2022-11-12T01:53:19.424Z,11.98
2022-11-12T01:56:05.893Z,13.05
2022-11-12T01:59:02.302Z,13.60
2022-11-12T02:01:47.422Z,13.57
2022-11-12T02:04:34.532Z,15.68
2022-11-12T02:07:22.656Z,14.90
2022-11-12T02:10:09.580Z,11.65
2022-11-12T02:13:13.273Z,15.77
2022-11-12T02:15:58.761Z,12.52
2022-11-12T02:18:43.862Z,10.57
2022-11-12T02:21:29.276Z,13.57
2022-11-12T02:24:13.998Z,11.80
2022-11-12T02:26:59.829Z,13.82
2022-11-12T02:29:47.556Z,12.30
2022-11-12T02:32:32.615Z,13.50
2022-11-12T02:35:17.495Z,11.68
2022-11-12T02:38:03.134Z,11.15
2022-11-12T02:40:48.297Z,15.40
2022-11-12T02:43:33.739Z,11.35
2022-11-12T02:46:19.415Z,11.32
2022-11-12T02:49:04.425Z,11.75
2022-11-12T02:51:49.318Z,11.63
2022-11-12T02:54:34.219Z,12.65
2022-11-12T02:57:19.132Z,13.20
2022-11-12T03:00:06.145Z,12.73
2022-11-12T03:03:00.235Z,10.65
2022-11-12T03:05:46.582Z,12.82
2022-11-12T03:08:31.363Z,11.45
2022-11-12T03:11:17.466Z,10.60
2022-11-12T03:14:02.743Z,9.70
2022-11-12T03:16:47.794Z,11.23
2022-11-12T03:19:32.697Z,8.85
2022-11-12T03:22:17.654Z,8.52
2022-11-12T03:25:02.586Z,7.85
2022-11-12T03:27:47.482Z,10.20
2022-11-12T03:30:35.858Z,10.18
2022-11-12T03:33:20.924Z,9.45
2022-11-12T03:36:06.130Z,8.25
2022-11-12T03:38:51.079Z,6.43
2022-11-12T03:41:35.862Z,9.30
2022-11-12T03:44:20.816Z,7.85
2022-11-12T03:47:05.570Z,6.45
2022-11-12T03:49:50.481Z,9.35
2022-11-12T03:52:35.534Z,6.60
2022-11-12T03:55:22.205Z,8.32
2022-11-12T03:58:07.562Z,9.43
2022-11-12T04:00:52.696Z,7.03
2022-11-12T04:03:37.536Z,9.35
2022-11-12T04:06:41.515Z,6.05
2022-11-12T04:09:26.704Z,5.07
2022-11-12T04:12:30.313Z,7.43
2022-11-12T04:15:15.638Z,7.53
2022-11-12T04:18:19.150Z,7.50
2022-11-12T04:21:22.976Z,8.43
2022-11-12T04:24:08.163Z,8.77
2022-11-12T04:26:52.995Z,9.43
2022-11-12T04:29:56.620Z,5.30
2022-11-12T04:32:54.524Z,6.53
2022-11-12T04:35:39.389Z,9.77
2022-11-12T04:38:24.629Z,8.00
2022-11-12T04:41:28.437Z,8.00
2022-11-12T04:44:32.418Z,7.50
2022-11-12T04:47:17.828Z,10.07
2022-11-12T04:50:13.017Z,7.05
2022-11-12T04:52:58.159Z,7.40
2022-11-12T04:55:42.985Z,5.82
2022-11-12T04:58:28.228Z,5.65
2022-11-12T05:01:13.181Z,7.53
2022-11-12T05:03:58.216Z,6.90
2022-11-12T05:06:53.203Z,7.93
2022-11-12T05:09:38.685Z,10.90
2022-11-12T05:12:23.572Z,7.25
2022-11-12T05:15:09.373Z,5.47
2022-11-12T05:17:54.513Z,7.95
2022-11-12T05:20:39.425Z,10.25
2022-11-12T05:23:24.298Z,7.45
2022-11-12T05:26:09.152Z,9.02
2022-11-12T05:28:54.150Z,8.77
2022-11-12T05:31:39.360Z,9.82
2022-11-12T05:34:24.264Z,7.68
2022-11-12T05:37:10.855Z,9.10
2022-11-12T05:39:56.191Z,5.68
2022-11-12T05:42:41.010Z,6.82
2022-11-12T05:45:25.926Z,8.60
2022-11-12T05:48:11.029Z,9.10
2022-11-12T05:51:12.424Z,9.23
2022-11-12T05:53:57.830Z,8.75
2022-11-12T05:56:42.868Z,5.55
2022-11-12T05:59:27.760Z,7.03
2022-11-12T06:02:12.791Z,7.55
2022-11-12T06:04:58.196Z,7.10
2022-11-12T06:07:43.185Z,5.32
2022-11-12T06:10:27.933Z,11.13
2022-11-12T06:13:13.043Z,6.43
2022-11-12T06:15:57.997Z,7.07
2022-11-12T06:18:43.230Z,6.65
2022-11-12T06:21:28.467Z,12.73
2022-11-12T06:24:14.178Z,8.93
2022-11-12T06:26:59.077Z,9.85
2022-11-12T06:29:44.021Z,10.55
2022-11-12T06:32:28.901Z,13.13
2022-11-12T06:35:14.037Z,10.10
2022-11-12T06:37:59.271Z,14.93
2022-11-12T06:40:44.157Z,8.80
2022-11-12T06:43:31.226Z,10.02
2022-11-12T06:46:17.578Z,9.65
2022-11-12T06:49:02.881Z,9.75
2022-11-12T06:51:50.361Z,9.65
2022-11-12T06:54:35.482Z,9.73
2022-11-12T06:57:20.315Z,9.68
2022-11-12T07:00:05.797Z,7.65
2022-11-12T07:02:50.560Z,5.75
2022-11-12T07:05:37.976Z,7.28
2022-11-12T07:08:23.023Z,5.70
2022-11-12T07:11:08.534Z,6.82
2022-11-12T07:13:53.725Z,9.40
2022-11-12T07:16:38.589Z,8.05
2022-11-12T07:19:23.554Z,7.43
2022-11-12T07:22:08.427Z,10.40
2022-11-12T07:24:53.427Z,7.55
2022-11-12T07:27:38.188Z,7.60
2022-11-12T07:30:23.110Z,9.20
2022-11-12T07:33:08.053Z,9.43
2022-11-12T07:36:07.067Z,12.27
2022-11-12T07:38:53.408Z,10.25
2022-11-12T07:41:38.545Z,11.70
2022-11-12T07:44:23.401Z,12.13
2022-11-12T07:47:08.218Z,14.00
2022-11-12T07:49:53.090Z,12.48
2022-11-12T07:52:37.942Z,11.95
2022-11-12T07:55:22.854Z,12.50
2022-11-12T07:58:07.757Z,10.77
2022-11-12T08:00:53.308Z,14.48
2022-11-12T08:03:38.277Z,12.93
2022-11-12T08:06:23.726Z,13.48
2022-11-12T08:09:10.015Z,11.95
2022-11-12T08:11:55.400Z,14.60
2022-11-12T08:14:40.426Z,16.23
2022-11-12T08:17:25.373Z,12.63
2022-11-12T08:20:10.485Z,17.15
2022-11-12T08:22:59.878Z,14.23
2022-11-12T08:25:45.126Z,12.35
2022-11-12T08:28:31.638Z,16.50
2022-11-12T08:31:19.930Z,15.15
2022-11-12T08:34:12.325Z,13.15
2022-11-12T08:36:57.565Z,13.85
2022-11-12T08:39:42.351Z,13.15
2022-11-12T08:42:27.278Z,17.55
2022-11-12T08:45:12.109Z,16.30
2022-11-12T08:48:19.131Z,10.60
2022-11-12T08:51:05.430Z,9.90
2022-11-12T08:53:50.904Z,14.20
2022-11-12T08:56:36.049Z,12.27
2022-11-12T08:59:21.000Z,13.23
2022-11-12T09:02:06.689Z,13.85
2022-11-12T09:04:51.816Z,14.07
2022-11-12T09:07:49.270Z,17.40
2022-11-12T09:10:35.510Z,17.02
2022-11-12T09:13:21.019Z,10.52
2022-11-12T09:16:08.962Z,10.95
2022-11-12T09:18:53.969Z,9.45
2022-11-12T09:21:38.889Z,17.73
2022-11-12T09:24:23.811Z,10.98
2022-11-12T09:27:08.617Z,11.13
2022-11-12T09:29:53.624Z,14.38
2022-11-12T09:32:38.750Z,27.63
2022-11-12T09:35:23.893Z,25.63
2022-11-12T09:38:09.006Z,21.45
2022-11-12T09:40:54.110Z,23.33
2022-11-12T09:43:51.404Z,25.30
2022-11-12T09:46:54.981Z,34.33
2022-11-12T09:49:52.325Z,33.70
2022-11-12T09:52:39.180Z,27.55
2022-11-12T09:55:32.093Z,34.85
2022-11-12T09:58:19.298Z,34.20
2022-11-12T10:01:15.253Z,43.88
2022-11-12T10:04:21.538Z,43.47
2022-11-12T10:07:11.593Z,40.55
2022-11-12T10:10:05.346Z,33.45
2022-11-12T10:13:06.788Z,40.47
2022-11-12T10:19:42.989Z,43.67
2022-11-12T10:22:40.625Z,44.47
2022-11-12T10:25:25.863Z,41.65
2022-11-12T10:28:38.726Z,43.22
2022-11-12T10:31:24.508Z,44.45
2022-11-12T10:34:19.107Z,45.95
2022-11-12T10:37:14.917Z,48.78
2022-11-12T10:40:00.598Z,41.65
2022-11-12T10:43:01.297Z,44.72
2022-11-12T10:45:48.297Z,46.53
2022-11-12T10:48:34.149Z,44.45
2022-11-12T10:51:26.758Z,41.83
2022-11-12T10:54:27.015Z,44.58
2022-11-12T10:57:27.012Z,38.95
2022-11-12T11:00:12.112Z,44.80
2022-11-12T11:02:57.291Z,39.65
2022-11-12T11:06:02.030Z,43.85
2022-11-12T11:09:07.726Z,43.33
2022-11-12T11:11:54.041Z,40.25
2022-11-12T11:14:40.549Z,40.95
2022-11-12T11:17:25.351Z,37.60
2022-11-12T11:20:22.611Z,39.00
2022-11-12T11:23:49.498Z,40.78
2022-11-12T11:26:42.353Z,33.05
2022-11-12T11:29:47.807Z,29.73
2022-11-12T11:33:02.501Z,34.35
2022-11-12T11:36:18.024Z,40.10
2022-11-12T11:39:06.798Z,34.63
2022-11-12T11:42:13.815Z,33.78
2022-11-12T11:45:29.711Z,30.67
2022-11-12T11:48:45.565Z,30.15
2022-11-12T11:51:51.746Z,30.42
2022-11-12T11:55:15.615Z,36.42
2022-11-12T11:58:16.756Z,33.55
2022-11-12T12:01:19.695Z,26.35
2022-11-12T12:04:33.595Z,29.88
2022-11-12T12:07:35.194Z,30.60
2022-11-12T12:10:40.188Z,28.90
2022-11-12T12:13:49.660Z,25.40
2022-11-12T12:17:08.879Z,30.52
2022-11-12T12:20:18.480Z,22.00
2022-11-12T12:23:10.776Z,26.30
2022-11-12T12:26:00.542Z,23.52
2022-11-12T12:28:54.803Z,26.58
2022-11-12T12:31:58.670Z,25.65
2022-11-12T12:34:46.362Z,28.75
2022-11-12T12:37:42.408Z,25.40
2022-11-12T12:40:58.837Z,21.48
2022-11-12T12:43:52.385Z,25.10
2022-11-12T12:46:45.006Z,24.60
2022-11-12T12:49:34.211Z,21.23
2022-11-12T12:52:19.373Z,26.88
2022-11-12T12:55:04.555Z,26.48
2022-11-12T12:57:58.810Z,26.10
2022-11-12T13:00:50.482Z,27.88
2022-11-12T13:03:44.430Z,28.80
2022-11-12T13:06:34.310Z,23.35
2022-11-12T13:09:19.214Z,27.67
2022-11-12T13:12:04.790Z,23.50
2022-11-12T13:14:53.254Z,23.20
2022-11-12T13:17:44.508Z,25.70
2022-11-12T13:20:38.633Z,27.65
2022-11-12T13:24:02.730Z,24.55
2022-11-12T13:26:52.636Z,21.27
2022-11-12T13:29:37.851Z,20.85
2022-11-12T13:32:30.669Z,21.63
2022-11-12T13:35:21.889Z,23.60
2022-11-12T13:38:12.900Z,21.05
2022-11-12T13:41:17.466Z,21.05
2022-11-12T13:44:07.864Z,20.05
2022-11-12T13:46:55.635Z,17.92
2022-11-12T13:49:42.148Z,18.70
2022-11-12T13:52:28.859Z,23.55
2022-11-12T13:55:16.753Z,19.08
2022-11-12T13:58:01.935Z,20.63
2022-11-12T14:00:59.581Z,25.65
2022-11-12T14:03:48.225Z,19.52
2022-11-12T14:06:40.904Z,20.38
2022-11-12T14:09:50.935Z,26.15
2022-11-12T14:13:04.642Z,18.33
2022-11-12T14:15:59.131Z,24.42
2022-11-12T14:19:09.612Z,22.42
2022-11-12T14:22:18.587Z,22.00
2022-11-12T14:25:04.042Z,18.48
2022-11-12T14:27:51.407Z,20.85
2022-11-12T14:30:44.624Z,19.05
2022-11-12T14:33:31.873Z,17.10
2022-11-12T14:36:19.022Z,20.30
2022-11-12T14:39:04.037Z,20.08
2022-11-12T14:41:50.892Z,16.95
2022-11-12T14:44:37.954Z,17.90
2022-11-12T14:47:24.156Z,19.90
2022-11-12T14:50:16.315Z,18.98
2022-11-12T14:53:25.245Z,18.40
2022-11-12T14:56:35.326Z,20.88
2022-11-12T14:59:21.222Z,18.23
2022-11-12T15:02:42.734Z,18.42
2022-11-12T15:05:23.339Z,19.73
2022-11-12T15:08:11.472Z,23.70
2022-11-12T15:11:16.267Z,18.13
2022-11-12T15:14:05.830Z,15.57
2022-11-12T15:16:51.642Z,18.90
2022-11-12T15:19:41.636Z,18.17
2022-11-12T15:22:26.930Z,20.20
2022-11-12T15:25:30.007Z,17.55
2022-11-12T15:28:23.457Z,19.52
2022-11-12T15:31:18.621Z,19.48
2022-11-12T15:34:25.442Z,17.60
2022-11-12T15:37:19.679Z,15.40
2022-11-12T15:40:12.406Z,18.10
2022-11-12T15:42:57.930Z,16.95
2022-11-12T15:45:43.006Z,20.50
2022-11-12T15:48:28.418Z,15.27
2022-11-12T15:51:16.031Z,18.15
2022-11-12T15:54:00.986Z,19.17
2022-11-12T15:56:46.501Z,17.73
2022-11-12T15:59:31.790Z,14.48
2022-11-12T16:02:16.972Z,12.27
2022-11-12T16:05:01.999Z,19.52
2022-11-12T16:07:47.200Z,11.65
2022-11-12T16:10:32.037Z,16.52
2022-11-12T16:13:26.656Z,12.80
2022-11-12T16:16:12.009Z,9.98
2022-11-12T16:18:57.306Z,13.30
2022-11-12T16:21:42.211Z,16.05
2022-11-12T16:24:27.793Z,15.13
2022-11-12T16:27:16.212Z,14.30
2022-11-12T16:30:01.040Z,22.27
2022-11-12T16:32:48.179Z,21.00
2022-11-12T16:35:35.308Z,20.67
2022-11-12T16:38:20.116Z,22.40
2022-11-12T16:41:05.263Z,10.70
2022-11-12T16:43:51.504Z,10.13
2022-11-12T16:46:40.197Z,5.68
2022-11-12T16:49:26.149Z,9.00
2022-11-12T16:52:11.462Z,9.38
2022-11-12T16:55:01.522Z,15.15
2022-11-12T16:57:49.046Z,12.30
2022-11-12T17:00:35.117Z,18.25
2022-11-12T17:03:19.995Z,14.23
2022-11-12T17:06:04.977Z,18.10
2022-11-12T17:08:54.399Z,19.30
2022-11-12T17:11:39.215Z,18.70
2022-11-12T17:14:28.135Z,15.82
2022-11-12T17:17:13.689Z,19.15
2022-11-12T17:19:59.146Z,13.85
2022-11-12T17:22:44.138Z,11.25
2022-11-12T17:25:28.916Z,15.50
2022-11-12T17:28:13.879Z,16.42
2022-11-12T17:31:03.856Z,16.52
2022-11-12T17:33:52.970Z,17.10
2022-11-12T17:36:43.204Z,13.27
2022-11-12T17:39:28.749Z,16.58
2022-11-12T17:42:13.786Z,10.25
2022-11-12T17:44:58.615Z,11.27
2022-11-12T17:47:43.605Z,8.10
2022-11-12T17:50:28.389Z,10.00
2022-11-12T17:53:13.539Z,11.63
2022-11-12T17:55:59.209Z,8.02
2022-11-12T17:58:47.843Z,8.95
2022-11-12T18:01:34.497Z,10.38
2022-11-12T18:04:20.281Z,6.88
2022-11-12T18:07:07.369Z,6.15
2022-11-12T18:09:52.324Z,8.85
2022-11-12T18:12:37.174Z,8.23
2022-11-12T18:15:22.137Z,8.73
2022-11-12T18:18:06.983Z,9.93
2022-11-12T18:20:52.104Z,8.15
2022-11-12T18:23:38.717Z,8.45
2022-11-12T18:26:24.011Z,7.65
2022-11-12T18:29:09.197Z,9.40
2022-11-12T18:31:54.331Z,10.13
2022-11-12T18:34:44.448Z,8.50
2022-11-12T18:37:29.860Z,17.25
2022-11-12T18:40:14.901Z,18.45
2022-11-12T18:43:00.150Z,24.05
2022-11-12T18:45:53.689Z,25.25
2022-11-12T18:48:40.332Z,23.67
2022-11-12T18:51:25.314Z,30.83
2022-11-12T18:54:10.263Z,18.67
2022-11-12T18:56:55.031Z,19.75
2022-11-12T18:59:40.194Z,17.77
2022-11-12T19:02:25.018Z,19.38
2022-11-12T19:05:09.909Z,19.35
2022-11-12T19:07:54.880Z,20.45
2022-11-12T19:10:40.188Z,19.30
2022-11-12T19:13:25.951Z,19.00
2022-11-12T19:16:14.377Z,18.05
2022-11-12T19:18:59.271Z,18.60
2022-11-12T19:21:44.496Z,26.02
2022-11-12T19:24:30.671Z,24.92
2022-11-12T19:27:15.733Z,30.15
2022-11-12T19:30:03.307Z,24.80
2022-11-12T19:32:48.667Z,26.30
2022-11-12T19:35:33.575Z,27.10
2022-11-12T19:38:18.367Z,23.48
2022-11-12T19:41:08.335Z,22.38
2022-11-12T19:43:53.784Z,26.80
2022-11-12T19:46:38.660Z,22.73
2022-11-12T19:49:26.416Z,19.60
2022-11-12T19:52:11.725Z,24.15
2022-11-12T19:55:00.892Z,21.70
2022-11-12T19:57:45.962Z,15.45
2022-11-12T20:00:31.076Z,15.05
2022-11-12T20:03:18.019Z,18.30
2022-11-12T20:06:08.230Z,14.55
2022-11-12T20:08:53.460Z,9.25
2022-11-12T20:11:38.260Z,11.50
2022-11-12T20:14:23.256Z,14.20
2022-11-12T20:17:08.392Z,13.98
2022-11-12T20:19:53.231Z,12.82
2022-11-12T20:22:38.083Z,12.43
2022-11-12T20:25:22.982Z,13.23
2022-11-12T20:28:07.991Z,14.25
2022-11-12T20:30:59.689Z,12.27
2022-11-12T20:33:44.786Z,13.50
2022-11-12T20:36:31.334Z,10.48
2022-11-12T20:39:16.514Z,10.27
2022-11-12T20:42:01.601Z,13.50
2022-11-12T20:44:46.742Z,10.68
2022-11-12T20:47:31.660Z,13.15
2022-11-12T20:50:16.807Z,11.75
2022-11-12T20:53:01.925Z,10.80
2022-11-12T20:55:46.889Z,13.88
2022-11-12T20:58:31.916Z,11.70
2022-11-12T21:01:19.590Z,11.15
2022-11-12T21:04:04.769Z,11.10
2022-11-12T21:06:50.212Z,11.80
2022-11-12T21:09:35.607Z,11.80
2022-11-12T21:12:20.469Z,13.52
2022-11-12T21:15:05.933Z,16.10
2022-11-12T21:17:51.827Z,23.95
2022-11-12T21:20:36.879Z,20.52
2022-11-12T21:23:22.249Z,19.92
2022-11-12T21:26:13.061Z,34.03
2022-11-12T21:28:58.341Z,34.08
2022-11-12T21:31:43.478Z,40.92
2022-11-12T21:34:28.928Z,41.13
2022-11-12T21:37:13.862Z,27.20
2022-11-12T21:39:58.879Z,25.90
2022-11-12T21:42:44.897Z,27.98
2022-11-12T21:45:29.831Z,35.53
2022-11-12T21:48:14.788Z,28.80
2022-11-12T21:51:12.205Z,34.33
2022-11-12T21:54:02.454Z,30.83
2022-11-12T21:56:47.643Z,38.90
2022-11-12T21:59:32.905Z,32.08
2022-11-12T22:02:17.792Z,34.35
2022-11-12T22:05:02.580Z,32.35
2022-11-12T22:07:47.387Z,24.45
2022-11-12T22:10:32.480Z,28.45
2022-11-12T22:13:26.855Z,25.13
2022-11-12T22:16:15.400Z,22.00
2022-11-12T22:19:00.738Z,26.40
2022-11-12T22:21:45.927Z,19.95
2022-11-12T22:24:30.814Z,26.13
2022-11-12T22:27:15.649Z,37.70
2022-11-12T22:30:00.569Z,40.55
2022-11-12T22:32:45.469Z,42.85
2022-11-12T22:35:30.381Z,44.33
2022-11-12T22:38:15.303Z,52.45
2022-11-12T22:41:01.932Z,50.22
2022-11-12T22:43:48.950Z,40.78
2022-11-12T22:46:34.689Z,47.60
2022-11-12T22:49:19.613Z,39.00
2022-11-12T22:52:04.738Z,48.67
2022-11-12T22:54:49.806Z,36.78
2022-11-12T22:57:34.753Z,44.20
2022-11-12T23:00:29.133Z,45.90
2022-11-12T23:03:14.221Z,57.67
2022-11-12T23:06:00.581Z,58.00
2022-11-12T23:08:45.883Z,60.05
2022-11-12T23:11:31.625Z,59.47
2022-11-12T23:14:16.561Z,56.08
2022-11-12T23:17:01.987Z,63.22
2022-11-12T23:19:46.958Z,65.43
2022-11-12T23:22:31.900Z,61.42
2022-11-12T23:25:16.858Z,70.75
2022-11-12T23:28:01.802Z,66.10
2022-11-12T23:30:52.860Z,62.38
2022-11-12T23:33:38.364Z,60.53
2022-11-12T23:36:25.075Z,67.28
2022-11-12T23:39:10.185Z,62.00
2022-11-12T23:41:55.091Z,63.35
2022-11-12T23:44:40.217Z,66.88
2022-11-12T23:47:25.402Z,60.92
2022-11-12T23:50:10.573Z,61.65
2022-11-12T23:52:55.383Z,70.55
2022-11-12T23:55:41.179Z,73.88
2022-11-12T23:58:26.534Z,50.85
